Time;durP1;ratioP1;P1;durP2;ratioP2;P2;SDS_P1;SDS_P2;PMS_P1;PMS_P2;Temp;Humidity;BMP_temperature;BMP_pressure;BME280_temperature;BME280_humidity;BME280_pressure;Samples;Min_cycle;Max_cycle;Signal;HPM_P1;HPM_P2
2023/07/15 00:01:56;;;;;;;1.63;1.10;;;25.90;47.70;;;;;;5011557;28;20026;-74
2023/07/15 00:04:21;;;;;;;1.73;1.23;;;25.90;47.80;;;;;;5011488;28;20377;-75
2023/07/15 00:06:47;;;;;;;1.85;1.35;;;25.90;47.70;;;;;;5011547;28;20084;-74
2023/07/15 00:09:13;;;;;;;1.70;1.20;;;25.90;47.70;;;;;;5011550;28;20081;-74
2023/07/15 00:11:45;;;;;;;1.10;1.00;;;25.90;47.80;;;;;;5011592;28;20049;-74
2023/07/15 00:14:18;;;;;;;1.27;1.13;;;25.90;47.70;;;;;;5011913;28;20037;-74
2023/07/15 00:16:44;;;;;;;1.83;1.23;;;25.90;47.80;;;;;;5012178;28;20025;-74
2023/07/15 00:19:10;;;;;;;2.45;1.33;;;25.90;47.70;;;;;;5011509;28;20076;-74
2023/07/15 00:21:36;;;;;;;1.52;1.05;;;25.90;47.80;;;;;;5011450;28;20080;-75
2023/07/15 00:24:02;;;;;;;1.40;1.30;;;25.90;47.80;;;;;;5011390;28;20385;-75
2023/07/15 00:26:32;;;;;;;2.67;1.35;;;25.90;47.20;;;;;;4993746;28;20029;-73
2023/07/15 00:28:58;;;;;;;;;;;25.90;47.80;;;;;;5011761;28;20079;-73
2023/07/15 00:31:24;;;;;;;1.08;0.95;;;25.90;47.90;;;;;;5011347;28;19911;-74
2023/07/15 00:33:50;;;;;;;1.20;1.02;;;25.90;47.80;;;;;;5011274;28;20026;-75
2023/07/15 00:36:16;;;;;;;1.73;1.23;;;25.90;64.60;;;;;;5011459;28;20026;-75
2023/07/15 00:38:43;;;;;;;0.98;0.88;;;25.90;47.90;;;;;;5011565;28;20026;-75
2023/07/15 00:41:28;;;;;;;1.55;1.30;;;25.80;47.80;;;;;;5011091;28;20465;-74
2023/07/15 00:43:58;;;;;;;1.52;1.00;;;25.80;47.80;;;;;;5011316;28;20117;-74
2023/07/15 00:46:49;;;;;;;1.17;1.00;;;25.80;47.70;;;;;;5011982;28;20084;-74
2023/07/15 00:49:25;;;;;;;2.65;0.90;;;25.80;47.90;;;;;;5011111;28;20177;-74
2023/07/15 00:52:15;;;;;;;1.77;1.20;;;25.80;48.00;;;;;;5011221;28;20181;-74
2023/07/15 00:54:52;;;;;;;1.23;0.95;;;25.80;47.90;;;;;;5011204;28;20046;-75
2023/07/15 00:57:19;;;;;;;2.20;1.08;;;25.80;47.90;;;;;;5011400;28;20045;-74
2023/07/15 00:59:46;;;;;;;1.30;1.20;;;25.80;47.30;;;;;;5011134;28;20014;-75
2023/07/15 01:02:14;;;;;;;1.92;1.17;;;25.80;47.30;;;;;;5010741;28;20124;-74
2023/07/15 01:04:40;;;;;;;1.23;1.10;;;25.70;47.70;;;;;;5011268;28;20021;-75
2023/07/15 01:07:07;;;;;;;1.10;1.00;;;25.80;47.80;;;;;;5010968;28;20034;-74
2023/07/15 01:09:33;;;;;;;1.92;1.00;;;25.80;47.80;;;;;;5011108;28;20030;-74
2023/07/15 01:11:59;;;;;;;1.08;0.98;;;25.80;48.20;;;;;;5010889;28;20381;-75
2023/07/15 01:14:28;;;;;;;1.52;1.30;;;25.80;47.90;;;;;;5011226;28;20022;-75
2023/07/15 01:16:54;;;;;;;1.15;0.98;;;25.80;47.80;;;;;;5011252;28;20388;-74
2023/07/15 01:19:20;;;;;;;1.67;1.20;;;25.60;64.30;;;;;;5013620;28;20132;-74
2023/07/15 01:21:50;;;;;;;2.13;1.10;;;25.70;47.80;;;;;;5014243;28;20100;-74
2023/07/15 01:24:17;;;;;;;;;;;25.70;47.80;;;;;;5014782;28;20064;-74
2023/07/15 01:26:42;;;;;;;1.05;0.95;;;25.80;47.90;;;;;;5014349;28;19906;-74
2023/07/15 01:29:08;;;;;;;1.38;1.15;;;25.70;48.40;;;;;;5014163;28;20041;-74
2023/07/15 01:31:34;;;;;;;1.23;1.00;;;25.70;47.90;;;;;;5014021;28;20030;-74
2023/07/15 01:34:00;;;;;;;1.45;1.05;;;25.70;47.90;;;;;;5014133;28;20448;-74
2023/07/15 01:36:26;;;;;;;1.15;0.95;;;25.70;47.90;;;;;;5014328;28;20018;-74
2023/07/15 01:38:52;;;;;;;1.17;1.00;;;25.70;47.90;;;;;;5014047;28;20101;-74
2023/07/15 01:41:18;;;;;;;1.60;0.90;;;25.70;47.90;;;;;;5014468;28;20118;-75
2023/07/15 01:43:44;;;;;;;2.15;1.25;;;25.70;47.90;;;;;;5013877;28;20049;-74
2023/07/15 01:46:10;;;;;;;1.55;0.90;;;25.70;48.00;;;;;;5013772;28;20022;-74
2023/07/15 01:48:36;;;;;;;2.35;1.25;;;25.70;48.00;;;;;;5013664;28;20120;-74
2023/07/15 01:51:02;;;;;;;1.95;1.25;;;25.70;48.00;;;;;;5013716;28;20026;-74
2023/07/15 01:53:27;;;;;;;1.50;1.15;;;25.70;48.10;;;;;;5013787;28;20136;-74
2023/07/15 01:55:53;;;;;;;1.25;0.90;;;25.70;48.00;;;;;;5013668;28;20057;-74
2023/07/15 01:58:20;;;;;;;1.70;1.00;;;25.70;48.10;;;;;;5013575;28;20038;-74
2023/07/15 02:00:46;;;;;;;2.92;1.00;;;25.70;48.10;;;;;;5013561;28;20030;-74
2023/07/15 02:03:12;;;;;;;3.33;1.00;;;25.70;48.10;;;;;;5013321;28;20063;-74
2023/07/15 02:05:37;;;;;;;1.45;1.00;;;25.60;48.10;;;;;;5013586;28;20029;-74
2023/07/15 02:08:03;;;;;;;2.78;1.27;;;25.70;48.10;;;;;;5013551;28;20045;-74
2023/07/15 02:10:30;;;;;;;1.20;1.05;;;25.70;48.10;;;;;;5013913;28;20425;-74
2023/07/15 02:12:56;;;;;;;1.77;1.30;;;25.60;48.10;;;;;;5013468;28;20128;-74
2023/07/15 02:15:21;;;;;;;1.15;1.05;;;25.60;48.10;;;;;;5013447;28;20465;-74
2023/07/15 02:21:09;;;;;;;1.83;1.10;;;25.60;48.10;;;;;;5013699;28;20546;-75
2023/07/15 02:23:35;;;;;;;1.75;1.05;;;25.60;48.10;;;;;;5013342;28;20101;-74
2023/07/15 02:26:01;;;;;;;2.28;0.90;;;25.60;48.10;;;;;;5013179;28;20109;-75
2023/07/15 02:28:27;;;;;;;1.85;0.90;;;25.60;48.10;;;;;;5013000;28;20174;-75
2023/07/15 02:30:53;;;;;;;1.10;0.95;;;25.60;48.20;;;;;;5011956;28;20014;-75
2023/07/15 02:33:19;;;;;;;2.00;1.00;;;25.60;48.10;;;;;;5012931;28;20484;-74
2023/07/15 02:35:44;;;;;;;1.05;0.80;;;25.60;48.10;;;;;;5012896;28;20025;-75
2023/07/15 02:38:10;;;;;;;1.17;0.90;;;25.60;48.10;;;;;;5012935;28;20054;-75
2023/07/15 02:40:36;;;;;;;1.42;1.00;;;25.60;48.20;;;;;;5013680;28;20018;-75
2023/07/15 02:43:01;;;;;;;0.70;0.70;;;25.60;48.20;;;;;;5013046;28;20053;-74
2023/07/15 02:45:27;;;;;;;1.17;1.05;;;25.60;48.20;;;;;;5012781;28;20026;-74
2023/07/15 02:47:53;;;;;;;1.60;0.75;;;25.70;48.30;;;;;;5012776;28;20117;-74
2023/07/15 02:50:18;;;;;;;0.95;0.80;;;25.60;48.20;;;;;;5012991;28;20487;-75
2023/07/15 02:52:45;;;;;;;1.15;0.98;;;25.60;48.30;;;;;;5012839;28;20034;-75
2023/07/15 02:55:11;;;;;;;0.90;0.80;;;25.50;48.20;;;;;;5012678;28;20022;-74
2023/07/15 02:57:36;;;;;;;0.77;0.65;;;25.60;48.30;;;;;;5012606;28;20033;-75
2023/07/15 03:00:14;;;;;;;0.73;0.73;;;25.50;48.30;;;;;;5012542;28;20529;-74
2023/07/15 03:02:44;;;;;;;1.17;1.10;;;25.60;48.30;;;;;;5012367;28;20050;-74
2023/07/15 03:05:10;;;;;;;;;;;25.50;48.20;;;;;;5012889;28;20033;-74
2023/07/15 03:07:35;;;;;;;1.05;0.90;;;25.50;48.20;;;;;;5012343;28;20036;-74
2023/07/15 03:10:02;;;;;;;1.45;0.98;;;25.50;48.30;;;;;;5012319;28;20108;-74
2023/07/15 03:12:28;;;;;;;1.30;0.80;;;25.50;48.30;;;;;;5012247;28;20037;-74
2023/07/15 03:14:54;;;;;;;1.77;1.13;;;25.50;48.30;;;;;;5012217;28;20393;-74
2023/07/15 03:17:20;;;;;;;0.70;0.70;;;25.50;48.30;;;;;;5012281;28;20026;-74
2023/07/15 03:19:45;;;;;;;0.80;0.70;;;25.50;48.30;;;;;;5012152;28;20041;-74
2023/07/15 03:22:11;;;;;;;1.40;0.90;;;25.50;48.40;;;;;;5012137;28;20674;-74
2023/07/15 03:24:38;;;;;;;1.48;0.95;;;25.50;48.50;;;;;;5012253;28;20030;-74
2023/07/15 03:27:04;;;;;;;1.05;0.95;;;25.50;48.40;;;;;;5012643;28;20092;-74
2023/07/15 03:29:30;;;;;;;1.27;0.77;;;25.50;48.50;;;;;;5011987;28;20037;-74
2023/07/15 03:31:56;;;;;;;1.40;0.80;;;25.50;48.50;;;;;;5012031;28;20022;-74
2023/07/15 03:34:21;;;;;;;0.93;0.82;;;25.50;48.60;;;;;;4994350;28;20117;-74
2023/07/15 03:36:47;;;;;;;2.08;1.05;;;25.50;48.50;;;;;;5012020;28;20021;-74
2023/07/15 03:39:12;;;;;;;2.20;0.98;;;25.50;48.50;;;;;;5011999;28;20061;-74
2023/07/15 03:41:38;;;;;;;0.98;0.80;;;25.50;48.70;;;;;;4993829;28;20033;-75
2023/07/15 03:44:04;;;;;;;2.97;0.98;;;25.50;48.60;;;;;;4994162;28;20108;-75
2023/07/15 03:46:30;;;;;;;1.02;0.90;;;25.50;48.60;;;;;;5011788;28;20061;-75
2023/07/15 03:48:55;;;;;;;1.05;0.88;;;25.50;48.70;;;;;;5011736;28;20116;-74
2023/07/15 03:51:21;;;;;;;1.55;0.93;;;25.50;48.70;;;;;;4993980;28;20524;-75
2023/07/15 03:53:47;;;;;;;1.27;0.90;;;25.50;48.60;;;;;;5012192;28;20030;-75
2023/07/15 03:56:12;;;;;;;2.08;1.00;;;25.50;65.50;;;;;;5011636;28;20026;-74
2023/07/15 03:58:38;;;;;;;1.20;1.10;;;25.40;48.60;;;;;;5011603;28;20045;-74
2023/07/15 04:01:04;;;;;;;1.10;0.82;;;25.50;48.60;;;;;;5011604;28;20026;-74
2023/07/15 04:03:30;;;;;;;1.00;0.60;;;25.50;48.80;;;;;;5011356;28;20084;-75
2023/07/15 04:05:56;;;;;;;1.05;0.80;;;25.40;48.60;;;;;;5011647;28;20108;-74
2023/07/15 04:08:21;;;;;;;0.73;0.70;;;25.40;48.60;;;;;;5011324;28;20066;-75
2023/07/15 04:10:48;;;;;;;1.48;0.80;;;25.40;48.60;;;;;;5011410;28;20127;-74
2023/07/15 04:13:14;;;;;;;1.20;0.80;;;25.40;48.70;;;;;;5011536;28;20022;-74
2023/07/15 04:15:40;;;;;;;1.38;1.00;;;25.40;48.60;;;;;;5011530;28;20025;-74
2023/07/15 04:18:05;;;;;;;1.05;0.80;;;25.40;48.70;;;;;;5011549;28;20115;-75
2023/07/15 04:20:32;;;;;;;1.20;0.70;;;25.40;48.70;;;;;;5011483;28;20468;-75
2023/07/15 04:22:58;;;;;;;0.70;0.60;;;25.60;63.90;;;;;;5011380;28;20445;-74
2023/07/15 04:25:24;;;;;;;0.95;0.60;;;25.40;48.80;;;;;;5011656;28;20093;-74
2023/07/15 04:27:50;;;;;;;1.10;0.85;;;25.40;48.80;;;;;;5011261;28;20034;-74
2023/07/15 04:30:16;;;;;;;2.63;0.68;;;;;;;;;;5011391;28;20440;-74
2023/07/15 04:32:41;;;;;;;0.90;0.85;;;25.40;48.30;;;;;;5011399;28;20109;-74
2023/07/15 04:35:07;;;;;;;0.60;0.60;;;25.40;48.90;;;;;;5011370;28;20431;-74
2023/07/15 04:37:35;;;;;;;0.60;0.60;;;25.40;49.60;;;;;;5011285;28;20037;-75
2023/07/15 04:40:04;;;;;;;1.42;0.70;;;25.40;49.00;;;;;;5011116;28;20030;-74
2023/07/15 04:42:29;;;;;;;0.98;0.55;;;25.40;49.00;;;;;;5011668;28;20033;-74
2023/07/15 04:44:55;;;;;;;0.50;0.50;;;25.30;48.90;;;;;;5011108;28;20022;-74
2023/07/15 04:47:20;;;;;;;1.88;0.65;;;25.40;49.00;;;;;;5011049;28;20080;-74
2023/07/15 04:49:46;;;;;;;1.30;0.80;;;25.40;49.00;;;;;;5011203;28;20034;-75
2023/07/15 04:52:12;;;;;;;1.17;0.70;;;25.40;49.20;;;;;;5011096;28;20392;-74
2023/07/15 04:54:37;;;;;;;1.63;0.73;;;25.40;49.00;;;;;;5014325;28;20490;-74
2023/07/15 04:57:03;;;;;;;0.88;0.80;;;25.40;49.00;;;;;;5014984;28;20025;-74
2023/07/15 04:59:29;;;;;;;0.70;0.60;;;25.40;49.00;;;;;;5014792;28;20029;-75
2023/07/15 05:01:54;;;;;;;1.27;0.63;;;25.30;49.00;;;;;;5014633;28;20052;-75
2023/07/15 05:04:20;;;;;;;1.30;0.82;;;25.40;49.10;;;;;;5014439;28;20053;-74
2023/07/15 05:06:46;;;;;;;1.17;0.70;;;25.30;49.00;;;;;;5015286;28;20021;-74
2023/07/15 05:09:11;;;;;;;1.70;0.65;;;25.40;49.10;;;;;;5022004;28;20033;-74
2023/07/15 05:11:37;;;;;;;0.70;0.70;;;25.40;49.10;;;;;;5014862;28;20026;-77
2023/07/15 05:14:04;;;;;;;1.73;0.70;;;25.30;49.10;;;;;;5014808;28;20084;-75
2023/07/15 05:16:30;;;;;;;1.00;0.90;;;25.30;48.70;;;;;;5015013;28;20091;-73
2023/07/15 05:18:56;;;;;;;1.73;0.80;;;;;;;;;;4996812;28;20480;-73
2023/07/15 05:21:22;;;;;;;1.02;0.63;;;25.30;48.60;;;;;;4996876;28;20507;-77
2023/07/15 05:23:47;;;;;;;0.88;0.60;;;25.30;49.20;;;;;;5014785;28;20034;-77
2023/07/15 05:26:13;;;;;;;0.70;0.70;;;24.70;50.10;;;;;;5014594;28;20348;-77
2023/07/15 05:28:39;;;;;;;1.13;0.75;;;25.30;49.20;;;;;;5014361;28;20064;-74
2023/07/15 05:31:06;;;;;;;0.57;0.55;;;;;;;;;;5013996;28;20033;-74
2023/07/15 05:33:31;;;;;;;1.52;0.85;;;25.30;48.60;;;;;;4996290;28;20030;-74
2023/07/15 05:35:57;;;;;;;0.70;0.50;;;25.30;49.40;;;;;;5014176;28;20018;-74
2023/07/15 05:38:25;;;;;;;1.10;0.70;;;25.50;49.50;;;;;;5014493;28;20045;-74
2023/07/15 05:40:52;;;;;;;1.92;0.50;;;25.30;48.90;;;;;;5013928;28;20029;-75
2023/07/15 05:43:19;;;;;;;1.50;0.73;;;;;;;;;;5014282;28;20034;-74
2023/07/15 05:45:46;;;;;;;1.02;0.50;;;25.30;48.80;;;;;;5013759;28;20389;-74
2023/07/15 05:48:12;;;;;;;0.50;0.50;;;25.30;49.50;;;;;;5013934;28;20087;-72
2023/07/15 05:50:38;;;;;;;1.02;0.57;;;25.30;49.30;;;;;;5013926;28;20034;-72
2023/07/15 05:53:05;;;;;;;0.93;0.70;;;25.30;49.40;;;;;;5014035;28;20106;-72
2023/07/15 05:55:33;;;;;;;9.35;0.88;;;25.30;49.40;;;;;;5013680;28;20189;-72
2023/07/15 05:58:00;;;;;;;1.23;0.47;;;25.30;49.50;;;;;;5013636;28;20030;-72
2023/07/15 06:00:26;;;;;;;0.50;0.50;;;25.30;49.40;;;;;;5013676;28;20109;-72
2023/07/15 06:02:52;;;;;;;0.50;0.50;;;25.30;49.40;;;;;;5013386;28;20124;-72
2023/07/15 06:05:17;;;;;;;1.48;0.80;;;25.30;49.50;;;;;;5013517;28;20444;-73
2023/07/15 06:07:43;;;;;;;0.60;0.57;;;;;;;;;;5013895;28;20068;-72
2023/07/15 06:10:09;;;;;;;1.38;0.63;;;25.30;49.00;;;;;;5013501;28;20039;-73
2023/07/15 06:12:35;;;;;;;1.08;0.60;;;25.30;49.50;;;;;;5013395;28;20110;-73
2023/07/15 06:15:01;;;;;;;0.85;0.57;;;25.30;49.60;;;;;;5013536;28;20057;-73
2023/07/15 06:17:27;;;;;;;0.60;0.40;;;25.40;49.50;;;;;;5013458;28;20052;-73
2023/07/15 06:19:52;;;;;;;0.70;0.40;;;25.40;49.60;;;;;;5013257;28;20476;-72
2023/07/15 06:22:18;;;;;;;0.80;0.60;;;25.30;49.60;;;;;;5013129;28;20038;-73
2023/07/15 06:24:45;;;;;;;0.90;0.60;;;25.40;49.70;;;;;;5013079;28;20032;-72
2023/07/15 06:27:11;;;;;;;0.90;0.45;;;25.40;49.70;;;;;;5013178;28;20064;-75
2023/07/15 06:29:37;;;;;;;0.63;0.40;;;;;;;;;;5013104;28;20033;-75
2023/07/15 06:32:03;;;;;;;1.10;0.47;;;25.60;49.20;;;;;;5013166;28;20070;-74
2023/07/15 06:34:29;;;;;;;0.43;0.40;;;25.30;49.60;;;;;;5013137;28;20084;-76
2023/07/15 06:36:55;;;;;;;0.80;0.52;;;25.40;49.70;;;;;;5013397;28;20054;-72
2023/07/15 06:39:20;;;;;;;2.10;0.63;;;25.30;49.70;;;;;;5012916;28;20527;-74
2023/07/15 06:41:46;;;;;;;0.40;0.30;;;25.30;49.80;;;;;;5012852;28;20509;-72
2023/07/15 06:44:11;;;;;;;1.42;0.40;;;25.30;49.70;;;;;;5012978;28;20025;-74
2023/07/15 06:46:37;;;;;;;0.60;0.40;;;25.40;49.90;;;;;;5012910;28;20018;-76
2023/07/15 06:49:03;;;;;;;2.13;0.90;;;25.40;50.20;;;;;;5012870;28;20037;-75
2023/07/15 06:51:29;;;;;;;0.90;0.50;;;25.40;50.00;;;;;;5012723;28;20025;-74
2023/07/15 06:53:55;;;;;;;1.40;0.52;;;25.40;50.10;;;;;;5013233;28;20025;-75
2023/07/15 06:56:20;;;;;;;1.05;0.50;;;25.30;50.20;;;;;;5012853;28;20389;-75
2023/07/15 06:58:48;;;;;;;0.70;0.50;;;25.40;50.50;;;;;;5012370;28;20029;-75
2023/07/15 07:01:14;;;;;;;0.93;0.55;;;25.50;67.20;;;;;;5012940;28;20334;-76
2023/07/15 07:03:40;;;;;;;0.60;0.35;;;25.40;50.40;;;;;;5012591;28;20060;-76
2023/07/15 07:06:06;;;;;;;1.08;0.60;;;25.30;50.40;;;;;;5013057;28;20069;-78
2023/07/15 07:08:31;;;;;;;1.13;0.52;;;25.40;50.60;;;;;;5012718;28;20155;-78
2023/07/15 07:10:57;;;;;;;0.90;0.50;;;25.40;50.50;;;;;;5012678;28;20091;-76
2023/07/15 07:13:23;;;;;;;1.63;0.45;;;25.40;50.60;;;;;;5013057;28;20117;-78
2023/07/15 07:15:50;;;;;;;1.58;0.43;;;25.40;50.60;;;;;;5012173;28;20026;-78
2023/07/15 07:18:15;;;;;;;0.30;0.30;;;25.40;51.20;;;;;;5012508;28;20365;-76
2023/07/15 07:20:42;;;;;;;2.15;0.70;;;25.40;50.80;;;;;;5012577;28;20022;-75
2023/07/15 07:23:08;;;;;;;3.38;0.77;;;25.40;50.70;;;;;;5012458;28;20051;-75
2023/07/15 07:25:33;;;;;;;0.80;0.55;;;25.40;51.10;;;;;;5012339;28;20099;-75
2023/07/15 07:27:59;;;;;;;0.93;0.40;;;25.50;50.90;;;;;;5012207;28;20116;-76
2023/07/15 07:30:25;;;;;;;2.33;0.70;;;25.50;51.10;;;;;;5012319;28;20022;-75
2023/07/15 07:32:50;;;;;;;1.85;0.85;;;25.40;51.00;;;;;;5012189;28;20232;-74
2023/07/15 07:35:17;;;;;;;1.55;0.63;;;25.50;51.20;;;;;;5012275;28;20472;-77
2023/07/15 07:37:43;;;;;;;1.33;0.38;;;25.50;51.00;;;;;;5012184;28;20026;-75
2023/07/15 07:40:09;;;;;;;1.10;0.40;;;25.50;51.00;;;;;;4994649;28;20555;-75
2023/07/15 07:42:35;;;;;;;1.10;0.60;;;25.40;50.90;;;;;;5011846;28;20069;-73
2023/07/15 07:45:01;;;;;;;3.05;0.68;;;25.50;67.90;;;;;;5012199;28;20030;-72
2023/07/15 07:47:26;;;;;;;1.10;0.40;;;25.50;50.90;;;;;;5012177;28;20362;-73
2023/07/15 07:49:52;;;;;;;2.17;0.57;;;25.50;50.80;;;;;;5012139;28;20614;-73
2023/07/15 07:52:19;;;;;;;1.38;0.50;;;25.50;50.80;;;;;;5011727;28;20024;-73
2023/07/15 07:54:45;;;;;;;1.88;0.47;;;25.50;50.70;;;;;;5011621;28;20030;-74
2023/07/15 07:57:14;;;;;;;0.73;0.40;;;25.50;50.60;;;;;;5011760;28;20415;-73
2023/07/15 07:59:40;;;;;;;1.67;0.50;;;25.50;50.60;;;;;;5011897;28;20507;-74
2023/07/15 08:02:06;;;;;;;1.40;0.50;;;25.50;50.60;;;;;;5011580;28;20033;-75
2023/07/15 08:04:32;;;;;;;1.48;0.50;;;25.50;50.40;;;;;;5012005;28;20029;-74
2023/07/15 08:06:57;;;;;;;0.75;0.40;;;25.60;50.50;;;;;;5011957;28;20392;-73
2023/07/15 08:09:23;;;;;;;0.68;0.43;;;25.60;50.50;;;;;;5011581;28;20034;-74
2023/07/15 08:11:49;;;;;;;1.55;0.63;;;25.60;50.50;;;;;;5011637;28;20111;-74
2023/07/15 08:14:15;;;;;;;1.33;0.50;;;25.60;50.50;;;;;;5011659;28;20315;-74
2023/07/15 08:16:41;;;;;;;1.70;0.60;;;25.60;50.50;;;;;;5012224;28;20053;-74
2023/07/15 08:19:07;;;;;;;0.68;0.40;;;25.60;50.60;;;;;;5011866;28;20061;-73
2023/07/15 08:21:32;;;;;;;2.70;0.55;;;25.60;50.60;;;;;;5011629;28;20022;-74
2023/07/15 08:23:59;;;;;;;1.13;0.32;;;25.60;50.60;;;;;;5011894;28;20124;-75
2023/07/15 08:26:25;;;;;;;1.73;0.38;;;25.60;50.70;;;;;;5011559;28;20471;-74
2023/07/15 08:28:52;;;;;;;0.88;0.47;;;25.60;50.70;;;;;;5016055;28;20065;-79
2023/07/15 08:31:18;;;;;;;0.50;0.40;;;25.60;50.70;;;;;;5019788;28;20030;-74
2023/07/15 08:33:44;;;;;;;0.95;0.60;;;25.70;50.80;;;;;;4997807;28;20487;-73
2023/07/15 08:36:10;;;;;;;1.30;0.60;;;25.70;50.80;;;;;;5015403;28;20026;-72
2023/07/15 08:38:36;;;;;;;1.83;0.80;;;25.70;50.90;;;;;;5015347;28;20034;-73
2023/07/15 08:41:02;;;;;;;1.30;0.70;;;25.70;50.90;;;;;;5015163;28;20026;-72
2023/07/15 08:43:32;;;;;;;1.95;0.73;;;25.70;50.80;;;;;;5015536;28;20040;-73
2023/07/15 08:46:01;;;;;;;3.10;0.68;;;25.80;50.90;;;;;;5015703;28;20033;-75
2023/07/15 08:48:27;;;;;;;1.63;0.77;;;25.80;51.00;;;;;;4997494;28;20591;-73
2023/07/15 08:50:57;;;;;;;1.27;0.70;;;25.80;51.20;;;;;;5014963;28;20287;-74
2023/07/15 08:53:27;;;;;;;0.80;0.60;;;25.80;51.30;;;;;;5015260;28;20097;-76
2023/07/15 08:55:57;;;;;;;2.90;0.70;;;24.60;50.70;;;;;;4997831;28;20365;-74
2023/07/15 08:58:24;;;;;;;0.70;0.60;;;25.80;51.50;;;;;;5015467;28;20488;-77
2023/07/15 09:00:51;;;;;;;2.17;0.70;;;25.90;51.80;;;;;;5015483;28;20029;-77
2023/07/15 09:03:17;;;;;;;1.45;0.60;;;25.90;68.40;;;;;;5014847;28;20570;-77
2023/07/15 09:05:48;;;;;;;1.67;0.65;;;25.80;51.40;;;;;;5015180;28;20041;-77
2023/07/15 09:08:17;;;;;;;1.88;0.80;;;25.90;51.50;;;;;;5014960;28;20499;-77
2023/07/15 09:10:50;;;;;;;;;;;25.90;51.70;;;;;;5015694;28;20018;-77
2023/07/15 09:13:28;;;;;;;1.80;0.70;;;25.90;51.50;;;;;;5014887;28;20004;-77
2023/07/15 09:15:54;;;;;;;1.75;0.40;;;25.90;51.40;;;;;;5015086;28;20033;-77
2023/07/15 09:18:21;;;;;;;1.10;0.50;;;26.00;51.60;;;;;;5015097;28;20451;-77
2023/07/15 09:20:47;;;;;;;2.70;0.82;;;26.00;51.80;;;;;;5014755;28;20045;-78
2023/07/15 09:23:14;;;;;;;0.93;0.50;;;26.00;51.80;;;;;;5014929;28;20415;-76
2023/07/15 09:25:50;;;;;;;1.20;0.50;;;26.00;51.70;;;;;;5014842;28;20381;-78
2023/07/15 09:28:16;;;;;;;1.73;0.65;;;;;;;;;;5014417;28;20034;-79
2023/07/15 09:30:41;;;;;;;1.45;0.77;;;26.00;51.20;;;;;;5014332;28;20037;-76
2023/07/15 09:33:07;;;;;;;2.63;0.73;;;26.00;51.70;;;;;;5015036;28;20018;-77
2023/07/15 09:35:37;;;;;;;1.77;0.70;;;26.10;51.90;;;;;;5014446;28;20432;-77
2023/07/15 09:38:08;;;;;;;1.35;0.75;;;26.10;51.90;;;;;;5014798;28;20101;-78
2023/07/15 09:40:43;;;;;;;1.80;0.50;;;26.10;51.90;;;;;;5014315;28;20084;-77
2023/07/15 09:43:09;;;;;;;2.38;0.68;;;26.10;51.90;;;;;;4997280;28;20054;-75
2023/07/15 09:45:38;;;;;;;1.45;0.70;;;26.10;51.90;;;;;;5014289;28;20026;-77
2023/07/15 09:48:08;;;;;;;2.25;0.70;;;26.10;51.90;;;;;;4997020;28;20105;-77
2023/07/15 09:50:36;;;;;;;0.57;0.40;;;26.10;52.00;;;;;;5014534;28;20477;-76
2023/07/15 09:53:02;;;;;;;1.10;0.60;;;26.10;52.00;;;;;;5014049;28;20388;-74
2023/07/15 09:55:30;;;;;;;0.95;0.75;;;26.20;52.00;;;;;;5014114;28;20525;-74
2023/07/15 09:58:03;;;;;;;2.35;0.55;;;26.20;52.00;;;;;;5013764;28;20500;-74
2023/07/15 10:00:34;;;;;;;1.55;0.68;;;26.20;52.10;;;;;;5013707;28;20124;-74
2023/07/15 10:03:02;;;;;;;0.90;0.63;;;26.20;51.50;;;;;;5013602;28;20080;-75
2023/07/15 10:05:28;;;;;;;2.47;0.73;;;26.20;52.10;;;;;;5013884;28;20022;-75
2023/07/15 10:07:54;;;;;;;1.50;0.77;;;26.20;52.10;;;;;;5013720;28;20029;-73
2023/07/15 10:10:20;;;;;;;0.80;0.45;;;26.20;52.10;;;;;;4996377;28;20122;-73
2023/07/15 10:12:47;;;;;;;1.65;0.50;;;26.20;52.00;;;;;;5013577;28;20037;-73
2023/07/15 10:15:14;;;;;;;1.65;0.70;;;26.20;52.00;;;;;;5013444;28;20049;-74
2023/07/15 10:17:39;;;;;;;1.75;0.70;;;26.20;52.00;;;;;;5013517;28;20381;-72
2023/07/15 10:20:10;;;;;;;1.00;0.68;;;26.30;52.10;;;;;;5013558;28;20018;-73
2023/07/15 10:22:36;;;;;;;1.85;0.90;;;;;;;;;;5013312;28;20053;-73
2023/07/15 10:25:03;;;;;;;2.15;0.60;;;26.30;51.50;;;;;;5013210;28;20096;-72
2023/07/15 10:27:31;;;;;;;1.30;0.68;;;26.30;51.40;;;;;;5013237;28;20022;-73
2023/07/15 10:30:26;;;;;;;3.20;0.80;;;26.30;52.00;;;;;;5013208;28;20038;-72
2023/07/15 10:33:00;;;;;;;1.17;0.60;;;26.30;51.70;;;;;;5013472;28;20096;-73
2023/07/15 10:35:27;;;;;;;1.85;0.80;;;26.40;51.90;;;;;;5013452;28;20084;-73
2023/07/15 10:37:56;;;;;;;0.90;0.50;;;26.40;51.90;;;;;;5013871;28;20022;-74
2023/07/15 10:41:04;;;;;;;4.85;1.00;;;26.50;52.00;;;;;;5013030;28;20064;-74
2023/07/15 10:43:35;;;;;;;1.33;1.20;;;26.60;51.40;;;;;;4971447;28;20034;-72
2023/07/15 10:46:02;;;;;;;1.75;0.60;;;26.70;50.90;;;;;;5008158;28;20049;-75
2023/07/15 10:48:28;;;;;;;1.48;0.68;;;26.90;68.10;;;;;;5012849;28;20049;-74
2023/07/15 10:50:55;;;;;;;2.45;0.90;;;26.70;52.10;;;;;;5011969;28;20104;-73
2023/07/15 10:53:29;;;;;;;2.42;1.30;;;26.80;52.20;;;;;;4995440;28;20030;-75
2023/07/15 10:55:57;;;;;;;2.05;1.08;;;26.80;51.50;;;;;;5012809;28;20041;-72
2023/07/15 10:58:23;;;;;;;2.75;0.93;;;26.80;51.50;;;;;;5012984;28;20022;-72
2023/07/15 11:00:49;;;;;;;1.05;0.80;;;26.90;51.50;;;;;;5013030;28;20029;-73
2023/07/15 11:03:18;;;;;;;3.50;0.68;;;26.90;51.40;;;;;;5012607;28;20053;-73
2023/07/15 11:05:44;;;;;;;0.80;0.80;;;27.00;51.30;;;;;;5012621;28;20040;-73
2023/07/15 11:08:10;;;;;;;2.15;0.88;;;27.10;51.00;;;;;;5012652;28;20041;-72
2023/07/15 11:10:35;;;;;;;4.00;0.80;;;27.30;50.90;;;;;;5012878;28;20396;-73
2023/07/15 11:13:14;;;;;;;1.95;1.33;;;27.40;50.50;;;;;;5012532;28;20071;-73
2023/07/15 11:15:41;;;;;;;1.90;1.05;;;27.40;50.40;;;;;;5012553;28;20030;-72
2023/07/15 11:18:17;;;;;;;1.30;1.00;;;27.60;50.20;;;;;;5012438;28;20026;-72
2023/07/15 11:20:47;;;;;;;3.08;0.98;;;27.60;49.90;;;;;;4994781;28;20516;-73
2023/07/15 11:23:13;;;;;;;;;;;27.70;49.80;;;;;;5012855;28;20029;-73
2023/07/15 11:25:39;;;;;;;1.95;1.20;;;27.80;49.20;;;;;;5012375;28;19905;-72
2023/07/15 11:28:05;;;;;;;3.83;1.48;;;27.90;49.20;;;;;;5012080;28;20048;-72
2023/07/15 11:30:35;;;;;;;2.45;1.10;;;27.90;49.20;;;;;;5012285;28;20061;-73
2023/07/15 11:33:02;;;;;;;2.83;1.20;;;28.00;48.60;;;;;;5012041;28;20030;-72
2023/07/15 11:35:31;;;;;;;4.13;1.20;;;28.10;48.40;;;;;;5012267;28;20484;-72
2023/07/15 11:37:56;;;;;;;2.85;1.05;;;29.10;49.10;;;;;;5012124;28;20431;-72
2023/07/15 11:40:22;;;;;;;1.45;0.90;;;28.20;48.50;;;;;;5012136;28;20030;-72
2023/07/15 11:42:51;;;;;;;4.25;1.00;;;28.20;48.70;;;;;;4994832;28;20413;-72
2023/07/15 11:45:17;;;;;;;6.27;1.13;;;28.10;48.20;;;;;;5012249;28;20073;-73
2023/07/15 11:47:43;;;;;;;1.20;0.90;;;28.10;48.50;;;;;;5012145;28;20030;-73
2023/07/15 11:50:13;;;;;;;1.63;0.80;;;28.00;48.70;;;;;;5011841;28;20026;-73
2023/07/15 11:52:42;;;;;;;4.45;1.33;;;27.90;49.30;;;;;;5012007;28;20050;-73
2023/07/15 11:55:08;;;;;;;1.38;0.85;;;27.80;50.00;;;;;;5012124;28;20026;-73
2023/07/15 11:57:45;;;;;;;2.03;1.10;;;27.80;50.40;;;;;;5011940;28;20526;-73
2023/07/15 12:00:32;;;;;;;3.08;1.02;;;27.80;50.60;;;;;;5012061;28;20093;-73
2023/07/15 12:02:59;;;;;;;1.88;1.10;;;27.80;50.20;;;;;;5011317;28;20385;-73
2023/07/15 12:05:25;;;;;;;2.47;1.30;;;27.90;50.70;;;;;;5011859;28;20022;-73
2023/07/15 12:07:52;;;;;;;1.92;0.98;;;27.90;50.80;;;;;;5011447;28;20025;-73
2023/07/15 12:10:19;;;;;;;1.60;0.80;;;27.90;50.80;;;;;;5011694;28;20358;-73
2023/07/15 12:12:46;;;;;;;1.60;1.00;;;27.90;51.00;;;;;;5012205;28;20430;-73
2023/07/15 12:15:15;;;;;;;3.63;0.80;;;27.80;51.10;;;;;;5011327;28;20057;-73
2023/07/15 12:17:43;;;;;;;1.20;1.10;;;27.80;51.30;;;;;;5011708;28;20041;-73
2023/07/15 12:20:11;;;;;;;2.50;1.35;;;27.90;51.20;;;;;;5011318;28;20018;-73
2023/07/15 12:22:40;;;;;;;1.90;0.85;;;27.90;51.10;;;;;;5011498;28;20109;-73
2023/07/15 12:25:07;;;;;;;2.37;0.90;;;27.90;51.20;;;;;;4994353;28;20030;-72
2023/07/15 12:27:34;;;;;;;1.65;0.88;;;28.00;51.20;;;;;;5011294;28;20037;-73
2023/07/15 12:30:00;;;;;;;1.05;0.90;;;28.00;51.00;;;;;;5011556;28;20030;-73
2023/07/15 12:32:26;;;;;;;1.13;1.02;;;28.20;51.00;;;;;;5011385;28;20512;-72
2023/07/15 12:34:51;;;;;;;0.60;0.60;;;28.30;50.70;;;;;;5011306;28;20099;-73
2023/07/15 12:37:18;;;;;;;2.17;1.00;;;28.40;50.70;;;;;;5011296;28;20486;-73
2023/07/15 12:39:44;;;;;;;1.85;1.00;;;28.40;50.90;;;;;;5011431;28;20153;-72
2023/07/15 12:42:10;;;;;;;3.80;1.40;;;28.40;50.60;;;;;;5011158;28;20045;-72
2023/07/15 12:44:36;;;;;;;1.05;0.80;;;28.40;50.60;;;;;;5011500;28;20049;-72
2023/07/15 12:47:02;;;;;;;4.72;1.20;;;28.40;50.90;;;;;;5011460;28;20037;-72
2023/07/15 12:49:29;;;;;;;1.52;1.05;;;;;;;;;;5011322;28;20053;-76
2023/07/15 12:51:55;;;;;;;3.42;1.05;;;28.00;65.20;;;;;;5011478;28;20021;-75
2023/07/15 12:54:21;;;;;;;2.00;1.27;;;28.20;49.50;;;;;;5011384;28;20547;-77